Ama, LA

3:50 PM CDT on June 23, 2017 (GMT -0500)
Dianne Place | | Change Station

Elev 13 ft 29.96 °N, 90.32 °W | Updated 9 seconds ago

Overcast
Overcast
87.3 °F
Feels Like 117 °F
N
5.8
Wind Variable Wind from SSW
Gusts 10.5 mph

Today
High -- | Low -- °F
--% Chance of Precip.
Yesterday
High -- | Low -- °F
Precip. -- in
Pressure 29.92 in
Visibility 10.0 miles
Clouds Scattered Clouds 2400 ft
Mostly Cloudy 3500 ft
Heat Index 117 °F
Dew Point 87 °F
Humidity 99%
Rainfall 0.02 in
Snow Depth Not available.
6:01 AM 8:05 PM
Waning Crescent, 0% visible
METAR KMSY 231953Z 19012G21KT 10SM SCT024 BKN035 31/26 A2991 RMK AO2 LTG DSNT NE AND NW SLP130 CB DSNT N AND NE AND NW T03110256
Pressure 29.92 in
Visibility 10.0 miles
Clouds Scattered Clouds 2400 ft
Mostly Cloudy 3500 ft
Heat Index 117 °F
Dew Point 87 °F
Humidity 99%
Rainfall 0.02 in
Snow Depth Not available.
6:01 AM 8:05 PM
Waning Crescent, 0% visible
METAR KMSY 231953Z 19012G21KT 10SM SCT024 BKN035 31/26 A2991 RMK AO2 LTG DSNT NE AND NW SLP130 CB DSNT N AND NE AND NW T03110256

Get Your Daily Forecast Email!

Thanks for signing up!

Be on the lookout for a verification email in your inbox.

You'll start receiving severe weather alerts in your inbox..

×

10-Day Weather Forecast

Almanac

Astronomy

Jun. 23, 2017 Rise Set
Actual Time
Civil Twilight
Nautical Twilight
Astronomical Twilight
Moon
Length of Visible Light
Length of Day
Tomorrow will be .
, % of the Moon is Illuminated

Today's Extremes

State Highs State Lows

Community

WunderPhotos

Category 6

Welcome to Category 6. This is the collective home for Weather Underground's featured writeups by Dr. Jeff Masters (right), Bob Henson (left), Chris Burt, and other regular contributors.

Nearby

Air Quality

  Air Quality AQ Index Pollutant
Not available.

Snow Depth

Station Depth Elevation

Earthquake Activity

City Distance Mag. Time & Date
Minimum magnitude displayed is 2.5.

Coastal Water Temperatures

Place Temperature

Stations

Nearby Weather Stations

Station Location Temp. Windchill Dew Point Humidity Wind Precip. Elev Updated Type
                   

Watches & Warnings

Flood Watch / Flood Statement
Issued: 3:45 PM CDT Jun. 23, 2017 – National Weather Service

... Coastal flood advisory is cancelled...

The National Weather Service in New Orleans has cancelled the
coastal flood advisory.

Tide levels have been slowly lowering and will continue to improve
steadily to normal levels over the weekend.


24/rr